createdAt,value
2023-03-07T00:00:45.502Z,99537.69
2023-03-07T00:03:14.400Z,99532.47
2023-03-07T00:05:42.830Z,99507.13
2023-03-07T00:08:12.545Z,99508.59
2023-03-07T00:10:40.303Z,99507.06
2023-03-07T00:13:08.864Z,99511.00
2023-03-07T00:15:38.994Z,99500.66
2023-03-07T00:18:07.473Z,99489.16
2023-03-07T00:20:35.208Z,99464.09
2023-03-07T00:23:03.110Z,99473.50
2023-03-07T00:25:32.183Z,99468.63
2023-03-07T00:27:59.934Z,99454.28
2023-03-07T00:30:27.871Z,99450.25
2023-03-07T00:32:55.837Z,99431.41
2023-03-07T00:35:23.570Z,99422.44
2023-03-07T00:37:51.310Z,99446.56
2023-03-07T00:40:20.206Z,99430.31
2023-03-07T00:42:49.453Z,99427.06
2023-03-07T00:45:17.318Z,99434.47
2023-03-07T00:47:45.037Z,99422.84
2023-03-07T00:50:12.865Z,99401.28
2023-03-07T00:52:40.639Z,99393.53
2023-03-07T00:55:09.618Z,99376.47
2023-03-07T00:57:37.354Z,99361.78
2023-03-07T01:00:09.025Z,99335.72
2023-03-07T01:02:36.746Z,99329.66
2023-03-07T01:05:05.461Z,99321.94
2023-03-07T01:07:33.174Z,99301.28
2023-03-07T01:10:00.914Z,99317.19
2023-03-07T01:12:28.642Z,99309.91
2023-03-07T01:14:56.405Z,99293.94
2023-03-07T01:17:25.557Z,99292.66
2023-03-07T01:19:53.284Z,99283.94
2023-03-07T01:22:20.980Z,99269.53
2023-03-07T01:24:48.736Z,99259.03
2023-03-07T01:27:16.453Z,99244.00
2023-03-07T01:29:44.236Z,99243.69
2023-03-07T01:32:12.056Z,99233.66
2023-03-07T01:34:41.264Z,99241.63
2023-03-07T01:37:09.004Z,99220.97
2023-03-07T01:39:36.744Z,99223.19
2023-03-07T01:42:04.576Z,99215.00
2023-03-07T01:44:32.746Z,99227.69
2023-03-07T01:47:00.939Z,99201.25
2023-03-07T01:49:31.226Z,99205.16
2023-03-07T01:52:05.807Z,99185.19
2023-03-07T01:54:37.188Z,99188.88
2023-03-07T01:57:05.838Z,99181.38
2023-03-07T01:59:35.186Z,99176.50
2023-03-07T02:02:08.750Z,99154.97
2023-03-07T02:04:43.603Z,98904.50
2023-03-07T02:07:13.839Z,98906.59
2023-03-07T02:09:43.511Z,98903.78
2023-03-07T02:12:12.086Z,98898.91
2023-03-07T02:14:39.855Z,98876.78
2023-03-07T02:17:07.880Z,98850.13
2023-03-07T02:19:53.177Z,98838.00
2023-03-07T02:22:22.322Z,98809.38
2023-03-07T02:24:53.941Z,98797.31
2023-03-07T02:27:25.476Z,98792.09
2023-03-07T02:29:53.438Z,98766.78
2023-03-07T02:32:21.282Z,98746.38
2023-03-07T02:34:49.210Z,98748.84
2023-03-07T02:37:20.788Z,98737.56
2023-03-07T02:39:49.503Z,98748.91
2023-03-07T02:42:20.547Z,98763.00
2023-03-07T02:44:56.890Z,98765.31
2023-03-07T02:47:24.910Z,98794.28
2023-03-07T02:49:52.742Z,98848.84
2023-03-07T02:52:21.699Z,98932.63
2023-03-07T02:54:49.720Z,98981.78
2023-03-07T02:57:17.477Z,99016.84
2023-03-07T02:59:45.180Z,99048.09
2023-03-07T03:02:14.351Z,99067.72
2023-03-07T03:04:42.261Z,99087.13
2023-03-07T03:07:10.237Z,99085.47
2023-03-07T03:09:37.988Z,99101.31
2023-03-07T03:12:06.057Z,99098.72
2023-03-07T03:14:33.868Z,99120.13
2023-03-07T03:17:01.595Z,99121.78
2023-03-07T03:19:31.377Z,99127.47
2023-03-07T03:21:59.399Z,99097.41
2023-03-07T03:24:27.129Z,99127.50
2023-03-07T03:26:56.999Z,99139.59
2023-03-07T03:29:25.473Z,99162.97
2023-03-07T03:31:53.339Z,99149.22
2023-03-07T03:34:21.097Z,99164.69
2023-03-07T03:36:50.976Z,99166.63
2023-03-07T03:39:18.774Z,99066.84
2023-03-07T03:41:46.489Z,99066.94
2023-03-07T03:44:14.220Z,99090.63
2023-03-07T03:46:41.968Z,99094.22
2023-03-07T03:49:12.545Z,99110.28
2023-03-07T03:51:40.393Z,99130.75
2023-03-07T03:54:09.642Z,99120.50
2023-03-07T03:56:37.355Z,99117.81
2023-03-07T03:59:05.258Z,99138.28
2023-03-07T04:01:33.033Z,99136.69
2023-03-07T04:04:01.151Z,99158.03
2023-03-07T04:06:30.795Z,99135.81
2023-03-07T04:08:59.465Z,99142.00
2023-03-07T04:11:28.542Z,99142.94
2023-03-07T04:13:56.228Z,99128.91
2023-03-07T04:16:24.272Z,99118.59
2023-03-07T04:18:52.805Z,99094.97
2023-03-07T04:21:21.635Z,99074.16
2023-03-07T04:23:50.432Z,99094.38
2023-03-07T04:26:18.426Z,99078.19
2023-03-07T04:28:49.290Z,99078.94
2023-03-07T04:31:19.413Z,99133.31
2023-03-07T04:33:47.932Z,99256.59
2023-03-07T04:36:17.276Z,99285.81
2023-03-07T04:38:45.412Z,99260.16
2023-03-07T04:41:14.603Z,99212.47
2023-03-07T04:43:42.324Z,99179.00
2023-03-07T04:46:12.354Z,99143.09
2023-03-07T04:48:40.086Z,99097.22
2023-03-07T04:51:08.285Z,99058.00
2023-03-07T04:53:36.088Z,99046.63
2023-03-07T04:56:06.239Z,98980.16
2023-03-07T04:58:34.538Z,98950.97
2023-03-07T05:01:02.622Z,98945.94
2023-03-07T05:03:32.130Z,98934.56
2023-03-07T05:06:03.436Z,98941.44
2023-03-07T05:08:31.579Z,98946.75
2023-03-07T05:10:59.628Z,98943.00
2023-03-07T05:13:27.503Z,98924.38
2023-03-07T05:15:57.306Z,98914.31
2023-03-07T05:18:25.989Z,98913.25
2023-03-07T05:20:55.082Z,98905.41
2023-03-07T05:23:23.196Z,98898.41
2023-03-07T05:25:51.231Z,98885.06
2023-03-07T05:28:19.095Z,98875.72
2023-03-07T05:30:47.856Z,98869.78
2023-03-07T05:33:16.038Z,98845.91
2023-03-07T05:35:44.063Z,98849.31
2023-03-07T05:38:13.176Z,98819.66
2023-03-07T05:40:41.283Z,98829.28
2023-03-07T05:43:09.104Z,98817.72
2023-03-07T05:45:36.832Z,98822.41
2023-03-07T05:48:04.731Z,98825.00
2023-03-07T05:50:32.689Z,98813.34
2023-03-07T05:53:00.421Z,98788.72
2023-03-07T05:55:29.514Z,98802.19
2023-03-07T05:57:57.212Z,98765.63
2023-03-07T06:00:25.678Z,98765.63
2023-03-07T06:02:53.464Z,98752.94
2023-03-07T06:05:24.242Z,98753.81
2023-03-07T06:07:52.943Z,98735.63
2023-03-07T06:10:21.036Z,98720.75
2023-03-07T06:12:52.205Z,98708.38
2023-03-07T06:15:20.615Z,98707.63
2023-03-07T06:17:48.562Z,98671.78
2023-03-07T06:20:17.075Z,98671.91
2023-03-07T06:22:44.785Z,98658.28
2023-03-07T06:25:12.788Z,98627.81
2023-03-07T06:27:40.593Z,98632.69
2023-03-07T06:30:12.185Z,98607.75
2023-03-07T06:32:39.981Z,98585.53
2023-03-07T06:35:08.444Z,98567.06
2023-03-07T06:37:36.145Z,98560.53
2023-03-07T06:40:06.385Z,98514.91
2023-03-07T06:42:34.113Z,98535.44
2023-03-07T06:45:01.947Z,98522.16
2023-03-07T06:47:31.045Z,98529.91
2023-03-07T06:49:58.910Z,98509.81
2023-03-07T06:52:26.698Z,98485.25
2023-03-07T06:54:54.409Z,98452.69
2023-03-07T06:57:22.109Z,98447.81
2023-03-07T06:59:49.814Z,98449.06
2023-03-07T07:02:17.597Z,98430.50
2023-03-07T07:04:46.741Z,98401.25
2023-03-07T07:07:14.636Z,98400.66
2023-03-07T07:09:42.354Z,98402.00
2023-03-07T07:12:10.241Z,98373.06
2023-03-07T07:14:37.951Z,98368.88
2023-03-07T07:17:05.723Z,98359.91
2023-03-07T07:19:33.556Z,98373.13
2023-03-07T07:22:02.626Z,98369.78
2023-03-07T07:27:14.344Z,98359.81
2023-03-07T07:29:42.065Z,98345.56
2023-03-07T07:32:10.164Z,98333.34
2023-03-07T07:34:37.939Z,98336.19
2023-03-07T07:37:05.904Z,98334.63
2023-03-07T07:39:33.689Z,98373.22
2023-03-07T07:42:01.421Z,98354.50
2023-03-07T07:44:32.081Z,98340.06
2023-03-07T07:46:59.776Z,98335.63
2023-03-07T07:49:27.811Z,98313.44
2023-03-07T07:51:55.537Z,98274.34
2023-03-07T07:54:23.270Z,98275.88
2023-03-07T07:56:50.980Z,98255.50
2023-03-07T07:59:18.750Z,98251.91
2023-03-07T08:01:47.862Z,98227.59
2023-03-07T08:04:15.648Z,98210.19
2023-03-07T08:06:44.225Z,98180.31
2023-03-07T08:09:12.125Z,98177.06
2023-03-07T08:11:39.866Z,98177.22
2023-03-07T08:14:07.685Z,98163.28
2023-03-07T08:16:35.391Z,98144.47
2023-03-07T08:19:04.704Z,98121.59
2023-03-07T08:21:32.465Z,98121.22
2023-03-07T08:24:00.163Z,98104.72
2023-03-07T08:26:27.926Z,98143.97
2023-03-07T08:28:55.664Z,98113.34
2023-03-07T08:31:25.415Z,98118.28
2023-03-07T08:33:53.753Z,98110.09
2023-03-07T08:36:22.788Z,98132.34
2023-03-07T08:38:52.150Z,98126.78
2023-03-07T08:41:21.016Z,98130.56
2023-03-07T08:43:49.260Z,98121.63
2023-03-07T08:46:17.051Z,98091.81
2023-03-07T08:48:45.031Z,98100.84
2023-03-07T08:51:15.870Z,98171.88
2023-03-07T08:53:46.220Z,98111.28
2023-03-07T08:56:15.556Z,98119.13
2023-03-07T08:58:43.679Z,98110.66
2023-03-07T09:01:13.451Z,98132.25
2023-03-07T09:03:41.484Z,98167.94
2023-03-07T09:06:09.224Z,98127.91
2023-03-07T09:08:36.898Z,98147.41
2023-03-07T09:11:06.180Z,97902.97
2023-03-07T09:13:42.996Z,98082.84
2023-03-07T09:16:14.394Z,98465.06
2023-03-07T09:18:42.121Z,98548.44
2023-03-07T09:21:09.826Z,98496.59
2023-03-07T09:23:37.503Z,98469.84
2023-03-07T09:26:06.981Z,98446.13
2023-03-07T09:28:34.708Z,98438.09
2023-03-07T09:31:08.303Z,98431.53
2023-03-07T09:33:36.042Z,98424.97
2023-03-07T09:36:05.962Z,98425.28
2023-03-07T09:38:34.397Z,98436.75
2023-03-07T09:41:08.638Z,98448.09
2023-03-07T09:43:45.162Z,98505.53
2023-03-07T09:46:25.571Z,98604.22
2023-03-07T09:49:12.694Z,98589.63
2023-03-07T09:51:42.595Z,98568.41
2023-03-07T09:54:14.261Z,98594.19
2023-03-07T09:56:45.788Z,98620.25
2023-03-07T09:59:23.647Z,98626.16
2023-03-07T10:01:58.379Z,98668.22
2023-03-07T10:04:33.283Z,98622.44
2023-03-07T10:07:03.446Z,98633.38
2023-03-07T10:09:31.161Z,98617.94
2023-03-07T10:12:31.574Z,98654.78
2023-03-07T10:15:13.400Z,98661.34
2023-03-07T10:17:52.457Z,98611.44
2023-03-07T10:20:26.198Z,98682.03
2023-03-07T10:23:00.616Z,98586.69
2023-03-07T10:25:30.567Z,98645.94
2023-03-07T10:28:14.427Z,98614.53
2023-03-07T10:30:42.174Z,98622.41
2023-03-07T10:33:18.540Z,98635.59
2023-03-07T10:35:53.213Z,98621.41
2023-03-07T10:38:29.543Z,98630.63
2023-03-07T10:41:01.229Z,98671.00
2023-03-07T10:43:33.073Z,98676.78
2023-03-07T10:46:23.618Z,98639.41
2023-03-07T10:48:55.907Z,98667.97
2023-03-07T10:51:46.027Z,98682.88
2023-03-07T10:54:16.901Z,98672.94
2023-03-07T10:57:04.410Z,98643.56
2023-03-07T10:59:33.970Z,98582.97
2023-03-07T11:02:03.450Z,98629.63
2023-03-07T11:04:45.549Z,98659.75
2023-03-07T11:07:28.013Z,98650.91
2023-03-07T11:09:56.325Z,98703.59
2023-03-07T11:12:25.455Z,98681.75
2023-03-07T11:14:58.012Z,98748.56
2023-03-07T11:17:28.524Z,98701.78
2023-03-07T11:19:57.483Z,98692.13
2023-03-07T11:22:29.320Z,98693.75
2023-03-07T11:25:04.269Z,98752.19
2023-03-07T11:27:36.440Z,98705.06
2023-03-07T11:30:20.363Z,98700.59
2023-03-07T11:32:53.520Z,98725.94
2023-03-07T11:35:26.143Z,98743.09
2023-03-07T11:38:03.172Z,98713.44
2023-03-07T11:40:35.773Z,98714.22
2023-03-07T11:43:13.592Z,98712.66
2023-03-07T11:45:52.021Z,98706.78
2023-03-07T11:48:32.925Z,98736.25
2023-03-07T11:51:00.911Z,98718.94
2023-03-07T11:53:47.099Z,98733.72
2023-03-07T11:56:24.706Z,98714.13
2023-03-07T11:59:13.139Z,98718.50
2023-03-07T12:01:54.419Z,98739.72
2023-03-07T12:05:00.114Z,98724.25
2023-03-07T12:07:59.241Z,98728.34
2023-03-07T12:10:38.188Z,98743.84
2023-03-07T12:13:17.304Z,98723.31
2023-03-07T12:15:52.874Z,98745.56
2023-03-07T12:18:48.445Z,98742.22
2023-03-07T12:21:29.098Z,98736.25
2023-03-07T12:24:02.894Z,98716.72
2023-03-07T12:26:40.527Z,98752.84
2023-03-07T12:29:18.832Z,98782.19
2023-03-07T12:31:52.451Z,98783.81
2023-03-07T12:34:31.166Z,98765.69
2023-03-07T12:37:04.477Z,98776.56
2023-03-07T12:39:40.538Z,98767.72
2023-03-07T12:42:15.938Z,98762.78
2023-03-07T12:44:48.504Z,98793.22
2023-03-07T12:47:22.993Z,98785.34
2023-03-07T12:49:56.645Z,98812.31
2023-03-07T12:52:34.708Z,98811.81
2023-03-07T12:55:09.709Z,98795.31
2023-03-07T12:57:43.665Z,98799.94
2023-03-07T13:00:18.313Z,98812.34
2023-03-07T13:02:52.846Z,98828.47
2023-03-07T13:05:22.600Z,98827.63
2023-03-07T13:07:51.269Z,98873.50
2023-03-07T13:10:21.747Z,98874.09
2023-03-07T13:12:50.006Z,98836.78
2023-03-07T13:16:02.536Z,98937.91
2023-03-07T13:18:32.788Z,98877.63
2023-03-07T13:21:33.049Z,98849.44
2023-03-07T13:24:35.971Z,98841.19
2023-03-07T13:27:05.306Z,98842.03
2023-03-07T13:30:18.066Z,98860.13
2023-03-07T13:33:00.488Z,98863.22
2023-03-07T13:35:56.414Z,98866.91
2023-03-07T13:38:34.382Z,98865.03
2023-03-07T13:41:04.465Z,98856.41
2023-03-07T13:43:57.742Z,98852.72
2023-03-07T13:46:51.706Z,98875.59
2023-03-07T13:49:49.720Z,98864.31
2023-03-07T13:52:30.208Z,98874.25
2023-03-07T13:55:01.723Z,98862.78
2023-03-07T13:57:36.802Z,98854.81
2023-03-07T14:00:19.990Z,98868.63
2023-03-07T14:02:47.896Z,98872.44
2023-03-07T14:05:15.757Z,98878.78
2023-03-07T14:07:43.608Z,98884.13
2023-03-07T14:10:22.869Z,98894.25
2023-03-07T14:13:27.972Z,98899.41
2023-03-07T14:16:10.917Z,98958.25
2023-03-07T14:18:51.190Z,98854.81
2023-03-07T14:21:30.063Z,98757.53
2023-03-07T14:24:21.331Z,98660.69
2023-03-07T14:26:55.683Z,98668.91
2023-03-07T14:29:25.105Z,98730.16
2023-03-07T14:31:56.896Z,98768.09
2023-03-07T14:34:29.987Z,98853.94
2023-03-07T14:37:00.504Z,98880.94
2023-03-07T14:39:40.353Z,98898.78
2023-03-07T14:42:20.598Z,98905.88
2023-03-07T14:45:18.965Z,98919.59
2023-03-07T14:48:06.592Z,98929.53
2023-03-07T14:50:35.812Z,98920.94
2023-03-07T14:53:06.564Z,98942.47
2023-03-07T14:55:38.468Z,98945.78
2023-03-07T14:58:08.017Z,98942.69
2023-03-07T15:00:36.091Z,98961.59
2023-03-07T15:03:07.965Z,98933.84
2023-03-07T15:05:37.770Z,98941.28
2023-03-07T15:08:18.944Z,98945.53
2023-03-07T15:10:50.906Z,98951.47
2023-03-07T15:13:26.001Z,98953.47
2023-03-07T15:15:57.362Z,98984.09
2023-03-07T15:18:30.518Z,98979.31
2023-03-07T15:21:00.400Z,98974.06
2023-03-07T15:23:30.199Z,98963.50
2023-03-07T15:26:04.932Z,98984.50
2023-03-07T15:28:36.870Z,98987.00
2023-03-07T15:31:05.226Z,98972.19
2023-03-07T15:33:33.995Z,98984.25
2023-03-07T15:36:20.772Z,98969.78
2023-03-07T15:38:50.252Z,98973.06
2023-03-07T15:41:34.445Z,98995.78
2023-03-07T15:44:19.467Z,99004.13
2023-03-07T15:46:49.660Z,98999.31
2023-03-07T15:49:21.995Z,98997.66
2023-03-07T15:51:54.261Z,99012.38
2023-03-07T15:54:30.468Z,99014.19
2023-03-07T15:57:01.393Z,99021.25
2023-03-07T15:59:34.692Z,99034.53
2023-03-07T16:02:33.471Z,99007.66
2023-03-07T16:05:02.105Z,99021.75
2023-03-07T16:07:29.818Z,99023.41
2023-03-07T16:09:57.534Z,99029.38
2023-03-07T16:12:26.549Z,99042.97
2023-03-07T16:14:56.460Z,99041.88
2023-03-07T16:17:31.422Z,99033.81
2023-03-07T16:19:59.164Z,99043.09
2023-03-07T16:22:26.980Z,99040.97
2023-03-07T16:24:54.694Z,99059.22
2023-03-07T16:27:25.460Z,99042.06
2023-03-07T16:29:55.580Z,99054.84
2023-03-07T16:32:23.785Z,99072.44
2023-03-07T16:34:52.234Z,99068.22
2023-03-07T16:37:20.673Z,99065.06
2023-03-07T16:39:48.390Z,99071.78
2023-03-07T16:42:20.572Z,99083.06
2023-03-07T16:44:49.370Z,99073.19
2023-03-07T16:47:19.512Z,99087.03
2023-03-07T16:49:47.628Z,99095.38
2023-03-07T16:52:16.752Z,99080.63
2023-03-07T16:54:44.569Z,99095.22
2023-03-07T16:57:15.822Z,99104.94
2023-03-07T16:59:46.366Z,99086.75
2023-03-07T17:02:16.723Z,99097.47
2023-03-07T17:04:46.487Z,99099.97
2023-03-07T17:07:18.225Z,99094.09
2023-03-07T17:09:46.281Z,99122.88
2023-03-07T17:12:14.036Z,99116.34
2023-03-07T17:14:42.492Z,99134.03
2023-03-07T17:17:17.852Z,99124.78
2023-03-07T17:19:46.947Z,99150.13
2023-03-07T17:22:14.642Z,99128.91
2023-03-07T17:24:42.361Z,99145.16
2023-03-07T17:27:10.506Z,99129.19
2023-03-07T17:29:41.299Z,99137.59
2023-03-07T17:32:09.495Z,99145.16
2023-03-07T17:34:38.653Z,99144.19
2023-03-07T17:37:08.065Z,99159.63
2023-03-07T17:39:36.358Z,99160.72
2023-03-07T17:42:04.792Z,99153.97
2023-03-07T17:44:33.110Z,99159.22
2023-03-07T17:47:00.929Z,99164.47
2023-03-07T17:49:34.861Z,99166.88
2023-03-07T17:52:02.729Z,99161.56
2023-03-07T17:54:34.062Z,99168.88
2023-03-07T17:57:02.748Z,99160.03
2023-03-07T17:59:32.178Z,99176.72
2023-03-07T18:01:59.907Z,99179.47
2023-03-07T18:04:30.817Z,99166.22
2023-03-07T18:06:58.822Z,99180.16
2023-03-07T18:09:26.682Z,99195.09
2023-03-07T18:11:55.785Z,99192.78
2023-03-07T18:14:24.142Z,99187.75
2023-03-07T18:16:52.406Z,99182.44
2023-03-07T18:19:26.617Z,99193.38
2023-03-07T18:21:55.282Z,99191.31
2023-03-07T18:24:26.127Z,99203.19
2023-03-07T18:26:56.155Z,99191.25
2023-03-07T18:29:25.741Z,99215.78
2023-03-07T18:31:53.927Z,99204.56
2023-03-07T18:34:21.764Z,99197.34
2023-03-07T18:36:51.690Z,99201.56
2023-03-07T18:39:19.809Z,99198.88
2023-03-07T18:41:48.833Z,99214.38
2023-03-07T18:44:19.658Z,99204.91
2023-03-07T18:46:47.431Z,99204.53
2023-03-07T18:49:16.133Z,99220.81
2023-03-07T18:51:45.845Z,99223.38
2023-03-07T18:54:14.046Z,99211.97
2023-03-07T18:56:42.607Z,99219.41
2023-03-07T18:59:10.378Z,99222.09
2023-03-07T19:01:40.878Z,99220.00
2023-03-07T19:04:09.177Z,99221.59
2023-03-07T19:06:39.628Z,99234.91
2023-03-07T19:09:09.632Z,99231.47
2023-03-07T19:11:37.401Z,99229.06
2023-03-07T19:14:05.121Z,99240.72
2023-03-07T19:16:32.890Z,99237.38
2023-03-07T19:19:02.817Z,99241.97
2023-03-07T19:21:31.385Z,99241.69
2023-03-07T19:24:01.514Z,99247.09
2023-03-07T19:26:29.449Z,99248.22
2023-03-07T19:28:58.361Z,99251.47
2023-03-07T19:31:28.100Z,99250.25
2023-03-07T19:33:56.583Z,99252.34
2023-03-07T19:36:27.599Z,99256.31
2023-03-07T19:38:58.959Z,99260.72
2023-03-07T19:41:28.489Z,99266.56
2023-03-07T19:43:56.700Z,99263.50
2023-03-07T19:46:24.629Z,99273.66
2023-03-07T19:48:52.572Z,99277.38
2023-03-07T19:51:22.548Z,99277.09
2023-03-07T19:53:51.691Z,99277.13
2023-03-07T19:56:21.249Z,99280.47
2023-03-07T19:58:48.985Z,99282.19
2023-03-07T20:01:18.335Z,99284.41
2023-03-07T20:03:46.664Z,99293.09
2023-03-07T20:06:19.648Z,99296.75
2023-03-07T20:08:48.688Z,99308.38
2023-03-07T20:11:19.852Z,99308.09
2023-03-07T20:13:48.807Z,99314.38
2023-03-07T20:16:18.304Z,99310.59
2023-03-07T20:18:50.478Z,99330.16
2023-03-07T20:21:18.714Z,99308.81
2023-03-07T20:23:48.334Z,99318.97
2023-03-07T20:26:20.241Z,99315.97
2023-03-07T20:28:48.163Z,99317.56
2023-03-07T20:31:16.680Z,99311.63
2023-03-07T20:33:46.323Z,99329.72
2023-03-07T20:36:18.288Z,99331.97
2023-03-07T20:38:50.038Z,99324.41
2023-03-07T20:41:20.996Z,99337.16
2023-03-07T20:43:49.680Z,99336.06
2023-03-07T20:46:19.496Z,99332.16
2023-03-07T20:48:47.881Z,99343.44
2023-03-07T20:51:19.646Z,99339.19
2023-03-07T20:53:48.131Z,99339.28
2023-03-07T20:56:16.306Z,99346.53
2023-03-07T20:58:46.148Z,99344.47
2023-03-07T21:01:16.117Z,99354.91
2023-03-07T21:03:44.373Z,99350.72
2023-03-07T21:06:12.166Z,99352.88
2023-03-07T21:08:39.983Z,99363.81
2023-03-07T21:11:09.480Z,99361.78
2023-03-07T21:13:38.993Z,99372.53
2023-03-07T21:16:10.914Z,99362.66
2023-03-07T21:18:38.977Z,99370.28
2023-03-07T21:21:08.446Z,99373.84
2023-03-07T21:23:36.784Z,99391.50
2023-03-07T21:26:06.168Z,99388.00
2023-03-07T21:28:35.152Z,99397.22
2023-03-07T21:31:03.660Z,99383.97
2023-03-07T21:33:33.718Z,99400.63
2023-03-07T21:36:01.965Z,99383.16
2023-03-07T21:38:30.059Z,99387.75
2023-03-07T21:40:58.080Z,99402.16
2023-03-07T21:43:25.809Z,99401.41
2023-03-07T21:45:53.580Z,99409.06
2023-03-07T21:48:21.637Z,99397.00
2023-03-07T21:50:52.306Z,99405.03
2023-03-07T21:53:20.478Z,99407.00
2023-03-07T21:55:52.248Z,99413.63
2023-03-07T21:58:20.757Z,99411.03
2023-03-07T22:00:48.530Z,99414.34
2023-03-07T22:03:16.559Z,99418.13
2023-03-07T22:05:44.345Z,99428.28
2023-03-07T22:08:15.902Z,99421.31
2023-03-07T22:10:43.679Z,99430.81
2023-03-07T22:13:11.749Z,99428.94
2023-03-07T22:15:40.282Z,99426.94
2023-03-07T22:18:07.997Z,99450.69
2023-03-07T22:20:35.716Z,99450.47
2023-03-07T22:23:03.404Z,99449.28
2023-03-07T22:25:32.537Z,99444.75
2023-03-07T22:28:00.261Z,99456.00
2023-03-07T22:30:27.940Z,99459.88
2023-03-07T22:32:55.642Z,99451.66
2023-03-07T22:35:23.436Z,99458.53
2023-03-07T22:37:51.220Z,99453.91
2023-03-07T22:40:19.583Z,99457.97
2023-03-07T22:42:48.676Z,99465.03
2023-03-07T22:45:16.516Z,99460.63
2023-03-07T22:47:44.270Z,99463.72
2023-03-07T22:50:12.783Z,99471.63
2023-03-07T22:52:40.490Z,99463.66
2023-03-07T22:55:08.747Z,99463.38
2023-03-07T22:57:36.455Z,99466.03
2023-03-07T23:00:06.726Z,99464.81
2023-03-07T23:02:34.433Z,99465.81
2023-03-07T23:05:02.163Z,99468.06
2023-03-07T23:07:29.879Z,99468.50
2023-03-07T23:09:57.614Z,99478.94
2023-03-07T23:12:25.381Z,99472.97
2023-03-07T23:14:53.276Z,99481.59
2023-03-07T23:17:22.451Z,99478.97
2023-03-07T23:19:52.374Z,99478.28
2023-03-07T23:22:20.071Z,99486.94
2023-03-07T23:24:47.949Z,99479.75
2023-03-07T23:27:15.683Z,99486.47
2023-03-07T23:29:43.406Z,99492.53
2023-03-07T23:32:11.133Z,99493.91
2023-03-07T23:34:40.275Z,99493.91
2023-03-07T23:37:07.976Z,99495.81
2023-03-07T23:39:35.673Z,99496.94
2023-03-07T23:42:03.427Z,99503.88
2023-03-07T23:44:31.533Z,99515.16
2023-03-07T23:46:59.316Z,99511.88
2023-03-07T23:49:27.064Z,99512.53
2023-03-07T23:51:56.168Z,99516.81
2023-03-07T23:54:23.915Z,99522.16
2023-03-07T23:56:51.620Z,99510.16
2023-03-07T23:59:19.346Z,99511.25
